GMMN/CMN METAR and TAF weather

Enter ICAO airport designator
Station Type Date Time Source
GMMN METAR 2019/08/19 07:30 UTC NOAA

GMMN 190730Z VRB02KT 9999 SCT016 21/20 Q1017 NOSIG


Station Type Date Time Source
GMMN Decoded METAR 2019/08/19 07:30 UTC NOAA

Station name not available
Aug 19, 2019 - 03:30 AM EDT / 2019.08.19 0730 UTC
Wind: Variable at 2 MPH (2 KT):0
Visibility: greater than 7 mile(s):0
Sky conditions: partly cloudy
Temperature: 69 F (21 C)
Dew Point: 68 F (20 C)
Relative Humidity: 94%
Pressure (altimeter): 30.03 in. Hg (1017 hPa)
ob: GMMN 190730Z VRB02KT 9999 SCT016 21/20 Q1017 NOSIG
cycle: 7

Station Type Date Time Source
GMMN TAF 2019/08/19 06:36 UTC NOAA

TAF TAF GMMN 190500Z 1906/2012 02006KT 9999 SCT010
BECMG 1910/1912 34012KT
BECMG 1918/1922 36004KT SCT010
TEMPO 1900/1906 2000 BR BKN006

Example: see airport list